createdAt,value
2018-09-15T00:00:49.479Z,73.77
2018-09-15T00:01:49.437Z,72.85
2018-09-15T00:02:49.425Z,72.85
2018-09-15T00:03:49.413Z,72.75
2018-09-15T00:04:49.404Z,73.36
2018-09-15T00:05:49.393Z,73.46
2018-09-15T00:06:49.410Z,74.38
2018-09-15T00:07:49.379Z,73.26
2018-09-15T00:08:49.360Z,74.07
2018-09-15T00:09:49.354Z,74.17
2018-09-15T00:10:49.339Z,74.17
2018-09-15T00:11:49.333Z,73.26
2018-09-15T00:12:49.343Z,73.16
2018-09-15T00:13:49.308Z,73.26
2018-09-15T00:14:49.296Z,73.46
2018-09-15T00:15:49.285Z,74.58
2018-09-15T00:16:49.275Z,74.48
2018-09-15T00:17:49.339Z,74.58
2018-09-15T00:18:49.254Z,74.48
2018-09-15T00:19:49.247Z,74.27
2018-09-15T00:20:49.232Z,74.38
2018-09-15T00:21:49.227Z,73.87
2018-09-15T00:22:49.238Z,73.66
2018-09-15T00:23:49.201Z,74.38
2018-09-15T00:24:49.188Z,74.27
2018-09-15T00:25:49.181Z,74.27
2018-09-15T00:26:49.167Z,73.77
2018-09-15T00:27:49.179Z,74.58
2018-09-15T00:28:49.181Z,74.38
2018-09-15T00:29:49.136Z,74.68
2018-09-15T00:30:49.129Z,74.17
2018-09-15T00:31:49.115Z,74.48
2018-09-15T00:32:49.103Z,74.48
2018-09-15T00:33:49.093Z,74.58
2018-09-15T00:34:49.106Z,74.38
2018-09-15T00:35:49.071Z,73.97
2018-09-15T00:36:49.061Z,74.38
2018-09-15T00:37:49.076Z,74.48
2018-09-15T00:38:49.076Z,73.87
2018-09-15T00:39:49.052Z,73.46
2018-09-15T00:40:49.020Z,73.06
2018-09-15T00:41:49.063Z,73.66
2018-09-15T00:42:48.996Z,74.17
2018-09-15T00:43:48.986Z,74.68
2018-09-15T00:44:48.997Z,74.38
2018-09-15T00:45:48.963Z,73.66
2018-09-15T00:46:48.952Z,73.36
2018-09-15T00:47:48.943Z,73.43
2018-09-15T00:48:48.932Z,73.16
2018-09-15T00:49:48.944Z,73.46
2018-09-15T00:50:48.913Z,73.26
2018-09-15T00:51:48.904Z,72.85
2018-09-15T00:52:48.889Z,73.26
2018-09-15T00:53:48.877Z,73.16
2018-09-15T00:54:48.890Z,74.17
2018-09-15T00:55:48.856Z,72.65
2018-09-15T00:56:48.844Z,73.26
2018-09-15T00:57:48.834Z,73.26
2018-09-15T00:58:48.824Z,73.26
2018-09-15T00:59:48.841Z,74.27
2018-09-15T01:00:48.802Z,74.38
2018-09-15T01:01:48.794Z,74.17
2018-09-15T01:02:48.795Z,74.27
2018-09-15T01:03:48.773Z,73.77
2018-09-15T01:04:48.759Z,73.77
2018-09-15T01:05:48.787Z,73.26
2018-09-15T01:06:48.738Z,73.16
2018-09-15T01:07:48.727Z,73.66
2018-09-15T01:08:48.721Z,74.48
2018-09-15T01:09:48.706Z,74.38
2018-09-15T01:10:48.695Z,73.57
2018-09-15T01:11:48.708Z,73.87
2018-09-15T01:12:48.674Z,73.36
2018-09-15T01:13:48.721Z,74.38
2018-09-15T01:14:48.656Z,73.77
2018-09-15T01:15:48.642Z,74.07
2018-09-15T01:16:48.657Z,74.27
2018-09-15T01:17:48.620Z,73.57
2018-09-15T01:18:48.610Z,74.48
2018-09-15T01:19:48.600Z,74.38
2018-09-15T01:20:48.589Z,74.48
2018-09-15T01:21:48.603Z,74.38
2018-09-15T01:22:48.566Z,73.60
2018-09-15T01:23:48.557Z,74.38
2018-09-15T01:24:48.549Z,72.85
2018-09-15T01:25:48.534Z,71.94
2018-09-15T01:26:48.549Z,72.34
2018-09-15T01:27:48.513Z,71.13
2018-09-15T01:28:48.503Z,71.94
2018-09-15T01:29:48.492Z,72.45
2018-09-15T01:30:48.480Z,72.55
2018-09-15T01:31:48.494Z,71.73
2018-09-15T01:32:48.460Z,71.13
2018-09-15T01:33:48.448Z,71.23
2018-09-15T01:34:48.458Z,73.26
2018-09-15T01:35:48.426Z,73.26
2018-09-15T01:36:48.440Z,73.16
2018-09-15T01:37:48.405Z,72.75
2018-09-15T01:38:48.396Z,74.07
2018-09-15T01:39:48.387Z,73.87
2018-09-15T01:40:48.374Z,72.45
2018-09-15T01:41:48.386Z,73.06
2018-09-15T01:42:48.357Z,73.16
2018-09-15T01:43:48.344Z,70.62
2018-09-15T01:44:48.335Z,70.42
2018-09-15T01:45:48.321Z,70.42
2018-09-15T01:46:48.333Z,70.79
2018-09-15T01:47:48.321Z,71.13
2018-09-15T01:48:48.288Z,71.03
2018-09-15T01:49:48.280Z,69.78
2018-09-15T01:50:48.266Z,69.57
2018-09-15T01:51:48.280Z,69.78
2018-09-15T01:52:48.245Z,69.88
2018-09-15T01:53:48.235Z,70.18
2018-09-15T01:54:48.224Z,70.79
2018-09-15T01:55:48.237Z,70.59
2018-09-15T01:56:48.226Z,70.69
2018-09-15T01:57:48.209Z,71.09
2018-09-15T01:58:48.187Z,69.17
2018-09-15T01:59:48.175Z,69.47
2018-09-15T02:00:48.161Z,69.78
2018-09-15T02:01:48.171Z,69.03
2018-09-15T02:02:48.139Z,69.44
2018-09-15T02:03:48.130Z,69.13
2018-09-15T02:04:48.118Z,68.93
2018-09-15T02:05:48.106Z,68.63
2018-09-15T02:06:48.119Z,69.03
2018-09-15T02:07:48.089Z,68.96
2018-09-15T02:08:48.075Z,68.63
2018-09-15T02:09:48.063Z,69.34
2018-09-15T02:10:48.074Z,69.37
2018-09-15T02:11:48.068Z,69.57
2018-09-15T02:12:48.031Z,69.34
2018-09-15T02:13:48.021Z,69.03
2018-09-15T02:14:48.009Z,68.93
2018-09-15T02:15:47.999Z,69.13
2018-09-15T02:16:48.014Z,68.93
2018-09-15T02:17:47.979Z,69.13
2018-09-15T02:18:47.968Z,69.24
2018-09-15T02:19:47.955Z,69.03
2018-09-15T02:20:47.974Z,69.03
2018-09-15T02:21:47.961Z,68.93
2018-09-15T02:22:47.935Z,69.24
2018-09-15T02:23:47.912Z,68.93
2018-09-15T02:24:47.906Z,69.44
2018-09-15T02:25:47.891Z,69.24
2018-09-15T02:26:47.911Z,69.54
2018-09-15T02:27:47.872Z,69.74
2018-09-15T02:28:47.913Z,69.54
2018-09-15T02:29:47.850Z,69.54
2018-09-15T02:30:47.846Z,70.56
2018-09-15T02:31:47.851Z,69.44
2018-09-15T02:32:47.816Z,69.98
2018-09-15T02:33:47.822Z,70.79
2018-09-15T02:34:47.802Z,71.40
2018-09-15T02:35:47.785Z,70.42
2018-09-15T02:36:47.802Z,70.42
2018-09-15T02:37:47.764Z,70.39
2018-09-15T02:38:47.751Z,70.92
2018-09-15T02:39:47.754Z,70.72
2018-09-15T02:40:47.734Z,71.23
2018-09-15T02:41:47.744Z,70.72
2018-09-15T02:42:47.713Z,70.42
2018-09-15T02:43:47.712Z,71.33
2018-09-15T02:44:47.700Z,70.83
2018-09-15T02:45:47.685Z,71.03
2018-09-15T02:46:47.692Z,70.92
2018-09-15T02:47:47.655Z,70.92
2018-09-15T02:48:47.648Z,72.45
2018-09-15T02:49:47.637Z,72.96
2018-09-15T02:50:47.626Z,72.78
2018-09-15T02:51:47.639Z,72.69
2018-09-15T02:52:47.609Z,72.48
2018-09-15T02:53:47.594Z,72.89
2018-09-15T02:54:47.644Z,72.38
2018-09-15T02:55:47.569Z,73.02
2018-09-15T02:56:47.605Z,72.89
2018-09-15T02:57:47.549Z,72.89
2018-09-15T02:58:47.536Z,73.02
2018-09-15T02:59:47.543Z,73.63
2018-09-15T03:00:47.516Z,73.63
2018-09-15T03:01:47.529Z,73.74
2018-09-15T03:02:47.493Z,73.67
2018-09-15T03:03:47.482Z,74.38
2018-09-15T03:04:47.471Z,74.38
2018-09-15T03:05:47.461Z,74.38
2018-09-15T03:06:47.488Z,74.48
2018-09-15T03:07:47.439Z,74.38
2018-09-15T03:08:47.428Z,74.62
2018-09-15T03:09:47.421Z,75.63
2018-09-15T03:10:47.479Z,75.73
2018-09-15T03:11:47.421Z,76.04
2018-09-15T03:12:47.386Z,76.14
2018-09-15T03:13:47.374Z,76.04
2018-09-15T03:14:47.363Z,76.14
2018-09-15T03:15:47.355Z,76.48
2018-09-15T03:16:47.381Z,76.28
2018-09-15T03:17:47.330Z,76.18
2018-09-15T03:18:47.321Z,75.94
2018-09-15T03:19:47.318Z,76.38
2018-09-15T03:20:47.300Z,76.59
2018-09-15T03:21:47.310Z,76.68
2018-09-15T03:22:47.279Z,76.48
2018-09-15T03:23:47.271Z,77.09
2018-09-15T03:24:47.255Z,77.60
2018-09-15T03:25:47.245Z,77.50
2018-09-15T03:26:47.264Z,77.44
2018-09-15T03:27:47.225Z,77.84
2018-09-15T03:28:47.213Z,78.05
2018-09-15T03:29:47.221Z,77.53
2018-09-15T03:30:47.190Z,78.89
2018-09-15T03:31:47.202Z,78.15
2018-09-15T03:32:47.173Z,78.39
2018-09-15T03:33:47.156Z,78.80
2018-09-15T03:34:47.146Z,79.54
2018-09-15T03:35:47.135Z,79.75
2018-09-15T03:36:47.150Z,79.54
2018-09-15T03:37:47.112Z,80.46
2018-09-15T03:38:47.102Z,79.54
2018-09-15T03:39:47.114Z,79.54
2018-09-15T03:40:47.081Z,80.16
2018-09-15T03:41:47.243Z,79.75
2018-09-15T03:42:47.063Z,79.95
2018-09-15T03:43:47.049Z,80.26
2018-09-15T03:44:47.040Z,79.34
2018-09-15T03:45:47.031Z,79.85
2018-09-15T03:46:47.039Z,79.95
2018-09-15T03:47:47.006Z,79.85
2018-09-15T03:48:46.992Z,80.40
2018-09-15T03:49:46.986Z,80.40
2018-09-15T03:50:46.977Z,80.50
2018-09-15T03:51:46.985Z,81.41
2018-09-15T03:52:46.953Z,80.94
2018-09-15T03:53:46.938Z,81.86
2018-09-15T03:54:46.929Z,81.15
2018-09-15T03:55:46.917Z,81.66
2018-09-15T03:56:46.929Z,81.96
2018-09-15T03:57:46.896Z,81.90
2018-09-15T03:58:46.898Z,82.71
2018-09-15T03:59:46.885Z,82.61
2018-09-15T04:00:46.878Z,83.43
2018-09-15T04:01:46.876Z,83.63
2018-09-15T04:02:46.864Z,83.73
2018-09-15T04:03:46.833Z,84.04
2018-09-15T04:04:46.824Z,83.94
2018-09-15T04:05:46.810Z,83.94
2018-09-15T04:06:46.821Z,83.78
2018-09-15T04:07:46.788Z,83.78
2018-09-15T04:08:46.777Z,83.47
2018-09-15T04:09:46.771Z,84.18
2018-09-15T04:10:46.757Z,83.98
2018-09-15T04:11:46.770Z,83.98
2018-09-15T04:12:46.734Z,83.98
2018-09-15T04:13:46.723Z,83.98
2018-09-15T04:14:46.716Z,83.98
2018-09-15T04:15:46.702Z,84.49
2018-09-15T04:16:46.716Z,83.98
2018-09-15T04:17:46.681Z,83.87
2018-09-15T04:18:46.670Z,84.49
2018-09-15T04:19:46.663Z,83.87
2018-09-15T04:20:46.648Z,83.67
2018-09-15T04:21:46.663Z,84.18
2018-09-15T04:22:46.636Z,84.39
2018-09-15T04:23:46.617Z,84.94
2018-09-15T04:24:46.618Z,85.65
2018-09-15T04:25:46.611Z,86.06
2018-09-15T04:26:46.612Z,86.12
2018-09-15T04:27:46.574Z,85.14
2018-09-15T04:28:46.563Z,85.35
2018-09-15T04:29:46.552Z,85.45
2018-09-15T04:30:46.543Z,85.14
2018-09-15T04:31:46.555Z,85.28
2018-09-15T04:32:46.522Z,85.59
2018-09-15T04:33:46.511Z,85.89
2018-09-15T04:34:46.500Z,85.38
2018-09-15T04:35:46.489Z,85.89
2018-09-15T04:36:46.502Z,85.59
2018-09-15T04:37:46.468Z,86.20
2018-09-15T04:38:46.478Z,86.14
2018-09-15T04:39:46.451Z,86.24
2018-09-15T04:40:46.436Z,86.55
2018-09-15T04:41:46.530Z,85.53
2018-09-15T04:42:46.415Z,87.16
2018-09-15T04:43:46.403Z,87.06
2018-09-15T04:44:46.392Z,88.02
2018-09-15T04:45:46.387Z,87.71
2018-09-15T04:46:46.400Z,87.16
2018-09-15T04:47:46.362Z,87.51
2018-09-15T04:48:46.372Z,87.10
2018-09-15T04:49:46.341Z,87.30
2018-09-15T04:50:46.334Z,87.51
2018-09-15T04:51:46.344Z,87.41
2018-09-15T04:52:46.391Z,87.51
2018-09-15T04:53:46.300Z,88.23
2018-09-15T04:54:46.287Z,87.61
2018-09-15T04:55:46.281Z,87.85
2018-09-15T04:56:46.288Z,89.09
2018-09-15T04:57:46.253Z,88.53
2018-09-15T04:58:46.292Z,89.18
2018-09-15T04:59:46.234Z,88.94
2018-09-15T05:00:46.223Z,89.04
2018-09-15T05:01:46.237Z,88.98
2018-09-15T05:02:46.200Z,88.68
2018-09-15T05:03:46.196Z,88.98
2018-09-15T05:04:46.181Z,88.68
2018-09-15T05:05:46.167Z,89.29
2018-09-15T05:06:46.188Z,88.78
2018-09-15T05:07:46.146Z,89.80
2018-09-15T05:08:46.136Z,89.70
2018-09-15T05:09:46.128Z,89.90
2018-09-15T05:10:46.115Z,90.11
2018-09-15T05:11:46.151Z,89.50
2018-09-15T05:12:46.111Z,89.80
2018-09-15T05:13:46.088Z,89.18
2018-09-15T05:14:46.072Z,88.94
2018-09-15T05:15:46.060Z,89.35
2018-09-15T05:16:46.075Z,87.88
2018-09-15T05:17:46.039Z,87.77
2018-09-15T05:18:46.033Z,87.26
2018-09-15T05:19:46.018Z,86.82
2018-09-15T05:20:46.015Z,86.51
2018-09-15T05:21:46.047Z,86.61
2018-09-15T05:22:45.985Z,86.77
2018-09-15T05:23:46.024Z,85.86
2018-09-15T05:24:45.979Z,85.55
2018-09-15T05:25:45.956Z,85.96
2018-09-15T05:26:45.967Z,86.16
2018-09-15T05:27:45.941Z,85.65
2018-09-15T05:28:45.924Z,85.65
2018-09-15T05:29:45.913Z,85.55
2018-09-15T05:30:45.899Z,85.41
2018-09-15T05:31:45.918Z,85.35
2018-09-15T05:32:45.882Z,85.61
2018-09-15T05:33:45.872Z,84.90
2018-09-15T05:34:45.867Z,84.49
2018-09-15T05:35:45.848Z,85.10
2018-09-15T05:36:45.861Z,84.63
2018-09-15T05:37:45.826Z,85.00
2018-09-15T05:38:45.821Z,84.59
2018-09-15T05:39:45.822Z,84.69
2018-09-15T05:40:45.795Z,85.00
2018-09-15T05:41:45.808Z,84.39
2018-09-15T05:42:45.776Z,84.18
2018-09-15T05:43:45.765Z,84.49
2018-09-15T05:44:45.771Z,85.10
2018-09-15T05:45:45.743Z,85.21
2018-09-15T05:46:45.752Z,84.49
2018-09-15T05:47:45.721Z,84.59
2018-09-15T05:48:45.708Z,84.80
2018-09-15T05:49:45.854Z,84.28
2018-09-15T05:50:45.686Z,83.87
2018-09-15T05:51:45.700Z,84.08
2018-09-15T05:52:45.666Z,83.87
2018-09-15T05:53:45.675Z,84.18
2018-09-15T05:54:45.652Z,83.78
2018-09-15T05:55:45.634Z,83.98
2018-09-15T05:56:45.648Z,84.04
2018-09-15T05:57:45.617Z,83.78
2018-09-15T05:58:45.607Z,84.04
2018-09-15T05:59:45.598Z,84.14
2018-09-15T06:00:45.581Z,83.94
2018-09-15T06:01:45.688Z,84.14
2018-09-15T06:02:45.578Z,84.55
2018-09-15T06:03:45.551Z,83.63
2018-09-15T06:04:45.538Z,84.14
2018-09-15T06:05:45.528Z,84.45
2018-09-15T06:06:45.557Z,84.34
2018-09-15T06:07:45.621Z,84.34
2018-09-15T06:08:45.496Z,84.66
2018-09-15T06:09:45.486Z,84.96
2018-09-15T06:10:45.479Z,85.06
2018-09-15T06:11:45.490Z,85.57
2018-09-15T06:12:45.454Z,84.55
2018-09-15T06:13:45.503Z,84.34
2018-09-15T06:14:45.432Z,84.75
2018-09-15T06:15:45.422Z,84.51
2018-09-15T06:16:45.440Z,84.31
2018-09-15T06:17:45.416Z,84.00
2018-09-15T06:18:45.390Z,84.31
2018-09-15T06:19:45.404Z,84.51
2018-09-15T06:20:45.407Z,84.41
2018-09-15T06:21:45.404Z,84.51
2018-09-15T06:22:45.346Z,84.61
2018-09-15T06:23:45.337Z,84.61
2018-09-15T06:24:45.326Z,85.33
2018-09-15T06:25:45.319Z,84.61
2018-09-15T06:26:45.338Z,84.61
2018-09-15T06:27:45.292Z,84.37
2018-09-15T06:28:45.282Z,84.47
2018-09-15T06:29:45.270Z,83.86
2018-09-15T06:30:45.261Z,83.62
2018-09-15T06:31:45.290Z,83.21
2018-09-15T06:32:45.243Z,82.35
2018-09-15T06:33:45.229Z,82.01
2018-09-15T06:34:45.224Z,81.10
2018-09-15T06:35:45.206Z,80.76
2018-09-15T06:36:45.217Z,79.88
2018-09-15T06:37:45.182Z,80.49
2018-09-15T06:38:45.172Z,80.29
2018-09-15T06:39:45.162Z,79.84
2018-09-15T06:40:45.150Z,78.75
2018-09-15T06:41:45.178Z,77.43
2018-09-15T06:42:45.130Z,75.93
2018-09-15T06:43:45.139Z,74.78
2018-09-15T06:44:45.106Z,74.44
2018-09-15T06:45:45.205Z,73.05
2018-09-15T06:46:45.114Z,72.11
2018-09-15T06:47:45.081Z,70.76
2018-09-15T06:48:45.068Z,70.05
2018-09-15T06:49:45.068Z,70.83
2018-09-15T06:50:45.044Z,72.65
2018-09-15T06:51:45.064Z,72.68
2018-09-15T06:52:45.034Z,71.06
2018-09-15T06:53:45.040Z,70.02
2018-09-15T06:54:45.008Z,67.93
2018-09-15T06:55:44.995Z,67.52
2018-09-15T06:56:45.009Z,68.87
2018-09-15T06:57:45.032Z,69.65
2018-09-15T06:58:44.982Z,70.79
2018-09-15T06:59:44.945Z,72.48
2018-09-15T07:00:44.983Z,73.09
2018-09-15T07:01:44.970Z,73.83
2018-09-15T07:02:44.912Z,74.54
2018-09-15T07:03:44.903Z,74.88
2018-09-15T07:04:44.895Z,74.38
2018-09-15T07:05:44.881Z,74.48
2018-09-15T07:06:44.897Z,75.15
2018-09-15T07:07:44.862Z,74.85
2018-09-15T07:08:44.848Z,75.82
2018-09-15T07:09:44.836Z,74.10
2018-09-15T07:10:44.827Z,73.49
2018-09-15T07:11:44.846Z,73.49
2018-09-15T07:12:44.809Z,73.49
2018-09-15T07:13:44.795Z,74.85
2018-09-15T07:14:44.796Z,74.81
2018-09-15T07:15:44.777Z,75.12
2018-09-15T07:16:44.788Z,74.51
2018-09-15T07:17:44.754Z,74.21
2018-09-15T07:18:44.744Z,74.27
2018-09-15T07:19:44.729Z,74.37
2018-09-15T07:20:44.720Z,74.68
2018-09-15T07:21:44.732Z,73.76
2018-09-15T07:22:44.697Z,74.17
2018-09-15T07:23:44.693Z,74.48
2018-09-15T07:24:44.685Z,73.97
2018-09-15T07:25:44.667Z,74.48
2018-09-15T07:26:44.681Z,74.44
2018-09-15T07:27:44.660Z,73.46
2018-09-15T07:28:44.634Z,72.92
2018-09-15T07:29:44.628Z,72.48
2018-09-15T07:30:44.612Z,70.76
2018-09-15T07:31:44.648Z,71.64
2018-09-15T07:32:44.598Z,71.73
2018-09-15T07:33:44.582Z,71.80
2018-09-15T07:34:44.583Z,71.20
2018-09-15T07:35:44.557Z,69.89
2018-09-15T07:36:44.573Z,71.00
2018-09-15T07:37:44.685Z,70.86
2018-09-15T07:38:44.527Z,70.15
2018-09-15T07:39:44.516Z,70.56
2018-09-15T07:40:44.524Z,71.09
2018-09-15T07:41:44.574Z,70.59
2018-09-15T07:42:44.483Z,70.69
2018-09-15T07:43:44.476Z,70.49
2018-09-15T07:44:44.501Z,70.18
2018-09-15T07:45:44.451Z,69.75
2018-09-15T07:46:44.462Z,71.26
2018-09-15T07:47:44.432Z,70.86
2018-09-15T07:48:44.417Z,70.76
2018-09-15T07:49:44.409Z,71.17
2018-09-15T07:50:44.401Z,70.86
2018-09-15T07:51:44.467Z,70.25
2018-09-15T07:52:44.381Z,69.14
2018-09-15T07:53:44.366Z,69.45
2018-09-15T07:54:44.356Z,69.92
2018-09-15T07:55:44.343Z,69.01
2018-09-15T07:56:44.357Z,69.11
2018-09-15T07:57:44.461Z,69.71
2018-09-15T07:58:44.312Z,69.21
2018-09-15T07:59:44.303Z,69.42
2018-09-15T08:00:44.296Z,69.31
2018-09-15T08:01:44.303Z,69.42
2018-09-15T08:02:44.272Z,70.49
2018-09-15T08:03:44.268Z,68.67
2018-09-15T08:04:44.250Z,68.74
2018-09-15T08:05:44.240Z,68.33
2018-09-15T08:06:44.251Z,67.93
2018-09-15T08:07:44.216Z,68.64
2018-09-15T08:08:44.204Z,68.64
2018-09-15T08:09:44.198Z,68.33
2018-09-15T08:10:44.203Z,68.77
2018-09-15T08:11:44.198Z,68.95
2018-09-15T08:12:44.163Z,69.58
2018-09-15T08:13:44.183Z,69.78
2018-09-15T08:14:44.142Z,70.26
2018-09-15T08:15:44.132Z,68.57
2018-09-15T08:16:44.192Z,68.77
2018-09-15T08:17:44.110Z,69.04
2018-09-15T08:18:44.097Z,68.64
2018-09-15T08:19:44.088Z,67.80
2018-09-15T08:20:44.136Z,66.46
2018-09-15T08:21:44.093Z,67.36
2018-09-15T08:22:44.056Z,67.27
2018-09-15T08:23:44.046Z,67.07
2018-09-15T08:24:44.033Z,67.23
2018-09-15T08:25:44.022Z,66.73
2018-09-15T08:26:44.037Z,67.33
2018-09-15T08:27:44.026Z,65.22
2018-09-15T08:28:43.991Z,66.02
2018-09-15T08:29:43.982Z,65.32
2018-09-15T08:30:43.969Z,65.89
2018-09-15T08:31:43.993Z,64.72
2018-09-15T08:32:43.949Z,65.12
2018-09-15T08:33:43.952Z,64.28
2018-09-15T08:34:43.965Z,64.78
2018-09-15T08:35:43.919Z,65.49
2018-09-15T08:36:43.927Z,65.56
2018-09-15T08:37:43.913Z,64.95
2018-09-15T08:38:43.883Z,65.09
2018-09-15T08:39:43.880Z,65.26
2018-09-15T08:40:43.862Z,64.75
2018-09-15T08:41:43.877Z,64.35
2018-09-15T08:42:43.842Z,63.45
2018-09-15T08:43:43.828Z,63.95
2018-09-15T08:44:43.827Z,65.39
2018-09-15T08:45:43.819Z,65.69
2018-09-15T08:46:43.831Z,65.36
2018-09-15T08:47:43.807Z,64.05
2018-09-15T08:48:43.774Z,64.22
2018-09-15T08:49:43.765Z,64.72
2018-09-15T08:50:43.753Z,63.92
2018-09-15T08:51:43.768Z,63.28
2018-09-15T08:52:43.738Z,63.39
2018-09-15T08:53:43.759Z,62.21
2018-09-15T08:54:43.712Z,61.70
2018-09-15T08:55:43.701Z,62.21
2018-09-15T08:56:43.739Z,62.98
2018-09-15T08:57:43.678Z,62.58
2018-09-15T08:58:43.668Z,62.68
2018-09-15T08:59:43.658Z,62.78
2018-09-15T09:00:43.661Z,61.54
2018-09-15T09:01:43.665Z,60.81
2018-09-15T09:02:43.630Z,61.11
2018-09-15T09:03:43.691Z,61.01
2018-09-15T09:04:43.608Z,60.61
2018-09-15T09:05:43.592Z,60.31
2018-09-15T09:06:43.629Z,60.41
2018-09-15T09:07:43.596Z,60.03
2018-09-15T09:08:43.560Z,60.91
2018-09-15T09:09:43.558Z,60.21
2018-09-15T09:10:43.539Z,60.81
2018-09-15T09:11:43.551Z,61.65
2018-09-15T09:12:43.523Z,62.65
2018-09-15T09:13:43.511Z,62.24
2018-09-15T09:14:43.496Z,60.97
2018-09-15T09:15:43.487Z,61.07
2018-09-15T09:16:43.502Z,62.07
2018-09-15T09:17:43.492Z,62.30
2018-09-15T09:18:43.455Z,61.90
2018-09-15T09:19:43.452Z,62.64
2018-09-15T09:20:43.435Z,63.31
2018-09-15T09:21:43.448Z,63.42
2018-09-15T09:22:43.411Z,62.84
2018-09-15T09:23:43.402Z,63.11
2018-09-15T09:24:43.399Z,63.04
2018-09-15T09:25:43.402Z,63.62
2018-09-15T09:26:43.452Z,63.24
2018-09-15T09:27:43.358Z,63.34
2018-09-15T09:28:43.352Z,63.45
2018-09-15T09:29:43.364Z,63.45
2018-09-15T09:30:43.325Z,63.04
2018-09-15T09:31:43.339Z,63.54
2018-09-15T09:32:43.307Z,63.45
2018-09-15T09:33:43.293Z,63.67
2018-09-15T09:34:43.282Z,63.85
2018-09-15T09:35:43.272Z,63.75
2018-09-15T09:36:43.286Z,63.54
2018-09-15T09:37:43.250Z,64.32
2018-09-15T09:38:43.241Z,63.08
2018-09-15T09:39:43.230Z,62.68
2018-09-15T09:40:43.217Z,62.58
2018-09-15T09:41:43.274Z,61.94
2018-09-15T09:42:43.220Z,62.05
2018-09-15T09:43:43.187Z,62.32
2018-09-15T09:44:43.177Z,60.91
2018-09-15T09:45:43.164Z,61.11
2018-09-15T09:46:43.178Z,60.71
2018-09-15T09:47:43.145Z,60.38
2018-09-15T09:48:43.133Z,59.88
2018-09-15T09:49:43.123Z,60.15
2018-09-15T09:50:43.111Z,61.25
2018-09-15T09:51:43.125Z,60.05
2018-09-15T09:52:43.103Z,59.47
2018-09-15T09:53:43.081Z,60.08
2018-09-15T09:54:43.067Z,59.50
2018-09-15T09:55:43.059Z,61.01
2018-09-15T09:56:43.077Z,60.81
2018-09-15T09:57:43.036Z,60.84
2018-09-15T09:58:43.032Z,61.04
2018-09-15T09:59:43.017Z,60.94
2018-09-15T10:00:43.004Z,61.74
2018-09-15T10:01:43.131Z,61.94
2018-09-15T10:02:42.990Z,62.55
2018-09-15T10:03:42.993Z,64.06
2018-09-15T10:04:42.963Z,62.45
2018-09-15T10:05:42.977Z,62.05
2018-09-15T10:06:42.980Z,61.74
2018-09-15T10:07:42.929Z,61.41
2018-09-15T10:08:42.925Z,61.11
2018-09-15T10:09:42.909Z,61.91
2018-09-15T10:10:42.898Z,62.42
2018-09-15T10:11:42.909Z,60.91
2018-09-15T10:12:42.878Z,61.82
2018-09-15T10:13:42.865Z,60.91
2018-09-15T10:14:42.867Z,60.41
2018-09-15T10:15:42.898Z,61.58
2018-09-15T10:16:42.866Z,60.91
2018-09-15T10:17:42.827Z,60.98
2018-09-15T10:18:42.812Z,60.48
2018-09-15T10:19:42.800Z,61.08
2018-09-15T10:20:42.796Z,59.98
2018-09-15T10:21:42.869Z,60.78
2018-09-15T10:22:42.795Z,60.75
2018-09-15T10:23:42.766Z,58.97
2018-09-15T10:24:42.748Z,58.84
2018-09-15T10:25:42.791Z,58.24
2018-09-15T10:26:42.761Z,57.71
2018-09-15T10:27:42.714Z,57.71
2018-09-15T10:28:42.720Z,57.48
2018-09-15T10:29:42.694Z,57.08
2018-09-15T10:30:42.689Z,56.18
2018-09-15T10:31:42.697Z,56.18
2018-09-15T10:32:42.661Z,55.95
2018-09-15T10:33:42.668Z,56.26
2018-09-15T10:34:42.697Z,57.03
2018-09-15T10:35:42.640Z,55.43
2018-09-15T10:36:42.654Z,55.63
2018-09-15T10:37:42.607Z,53.82
2018-09-15T10:38:42.619Z,54.32
2018-09-15T10:39:42.589Z,54.60
2018-09-15T10:40:42.578Z,53.00
2018-09-15T10:41:42.593Z,53.80
2018-09-15T10:42:42.565Z,53.37
2018-09-15T10:43:42.545Z,52.87
2018-09-15T10:44:42.533Z,53.14
2018-09-15T10:45:42.524Z,52.55
2018-09-15T10:46:42.604Z,52.37
2018-09-15T10:47:42.517Z,52.07
2018-09-15T10:48:42.534Z,52.47
2018-09-15T10:49:42.487Z,52.47
2018-09-15T10:50:42.490Z,52.27
2018-09-15T10:51:42.502Z,51.07
2018-09-15T10:52:42.452Z,51.09
2018-09-15T10:53:42.442Z,52.09
2018-09-15T10:54:42.430Z,51.87
2018-09-15T10:55:42.419Z,51.07
2018-09-15T10:56:42.571Z,51.17
2018-09-15T10:57:42.396Z,51.97
2018-09-15T10:58:42.395Z,51.46
2018-09-15T10:59:42.423Z,50.74
2018-09-15T11:00:42.429Z,51.04
2018-09-15T11:01:42.386Z,50.57
2018-09-15T11:02:42.345Z,50.64
2018-09-15T11:03:42.334Z,51.04
2018-09-15T11:04:42.357Z,51.14
2018-09-15T11:05:42.337Z,51.14
2018-09-15T11:06:42.333Z,51.25
2018-09-15T11:07:42.297Z,52.04
2018-09-15T11:08:42.294Z,51.34
2018-09-15T11:09:42.269Z,50.54
2018-09-15T11:10:42.260Z,51.04
2018-09-15T11:11:42.306Z,50.46
2018-09-15T11:12:42.244Z,50.57
2018-09-15T11:13:42.341Z,50.96
2018-09-15T11:14:42.223Z,50.69
2018-09-15T11:15:42.212Z,50.59
2018-09-15T11:16:42.221Z,51.29
2018-09-15T11:17:42.196Z,51.69
2018-09-15T11:18:42.178Z,52.57
2018-09-15T11:19:42.163Z,51.46
2018-09-15T11:20:42.155Z,50.96
2018-09-15T11:21:42.168Z,51.77
2018-09-15T11:22:42.148Z,50.96
2018-09-15T11:23:42.143Z,50.46
2018-09-15T11:24:42.112Z,50.87
2018-09-15T11:25:42.105Z,49.96
2018-09-15T11:26:42.126Z,51.37
2018-09-15T11:27:42.080Z,51.14
2018-09-15T11:28:42.151Z,49.76
2018-09-15T11:29:42.062Z,50.44
2018-09-15T11:30:42.055Z,49.74
2018-09-15T11:31:42.065Z,48.34
2018-09-15T11:32:42.032Z,49.84
2018-09-15T11:33:42.021Z,48.64
2018-09-15T11:34:42.039Z,49.91
2018-09-15T11:35:41.996Z,47.72
2018-09-15T11:36:42.011Z,48.22
2018-09-15T11:37:41.991Z,48.72
2018-09-15T11:38:41.988Z,48.69
2018-09-15T11:39:41.952Z,47.19
2018-09-15T11:40:41.944Z,47.39
2018-09-15T11:41:41.961Z,46.59
2018-09-15T11:42:41.921Z,47.19
2018-09-15T11:43:41.945Z,47.81
2018-09-15T11:44:41.920Z,48.11
2018-09-15T11:45:41.892Z,47.72
2018-09-15T11:46:41.946Z,48.32
2018-09-15T11:47:41.885Z,48.82
2018-09-15T11:48:41.868Z,47.49
2018-09-15T11:49:41.845Z,47.60
2018-09-15T11:50:41.841Z,47.09
2018-09-15T11:51:41.871Z,46.67
2018-09-15T11:52:41.818Z,47.27
2018-09-15T11:53:41.843Z,47.75
2018-09-15T11:54:41.799Z,46.67
2018-09-15T11:55:41.792Z,46.57
2018-09-15T11:56:41.800Z,46.57
2018-09-15T11:57:42.213Z,45.50
2018-09-15T11:58:41.754Z,46.30
2018-09-15T11:59:41.740Z,47.22
2018-09-15T12:00:41.739Z,47.52
2018-09-15T12:01:41.745Z,47.31
2018-09-15T12:02:41.709Z,48.11
2018-09-15T12:03:41.708Z,47.42
2018-09-15T12:04:41.685Z,47.72
2018-09-15T12:05:41.676Z,48.61
2018-09-15T12:06:41.688Z,48.02
2018-09-15T12:07:41.701Z,47.42
2018-09-15T12:08:41.644Z,47.81
2018-09-15T12:09:41.637Z,48.32
2018-09-15T12:10:41.632Z,48.52
2018-09-15T12:11:41.635Z,48.82
2018-09-15T12:12:41.600Z,48.29
2018-09-15T12:13:41.590Z,49.69
2018-09-15T12:14:41.583Z,48.79
2018-09-15T12:15:41.573Z,47.99
2018-09-15T12:16:41.589Z,48.32
2018-09-15T12:17:41.608Z,47.92
2018-09-15T12:18:41.560Z,48.49
2018-09-15T12:19:41.527Z,47.99
2018-09-15T12:20:41.536Z,47.60
2018-09-15T12:21:41.598Z,48.47
2018-09-15T12:22:41.492Z,47.97
2018-09-15T12:23:41.492Z,46.27
2018-09-15T12:24:41.483Z,47.65
2018-09-15T12:25:41.477Z,46.95
2018-09-15T12:26:41.486Z,47.05
2018-09-15T12:27:41.461Z,47.15
2018-09-15T12:28:41.438Z,46.77
2018-09-15T12:29:41.425Z,47.37
2018-09-15T12:30:41.430Z,46.37
2018-09-15T12:31:41.424Z,46.89
2018-09-15T12:32:41.410Z,47.69
2018-09-15T12:33:41.391Z,47.87
2018-09-15T12:34:41.384Z,48.37
2018-09-15T12:35:41.359Z,46.85
2018-09-15T12:36:41.415Z,46.05
2018-09-15T12:37:41.338Z,46.65
2018-09-15T12:38:41.320Z,46.73
2018-09-15T12:39:41.334Z,45.85
2018-09-15T12:40:41.310Z,45.40
2018-09-15T12:41:41.320Z,43.93
2018-09-15T12:42:41.288Z,44.05
2018-09-15T12:43:41.288Z,44.89
2018-09-15T12:44:41.280Z,44.79
2018-09-15T12:45:41.254Z,44.99
2018-09-15T12:46:41.262Z,44.27
2018-09-15T12:47:41.226Z,43.21
2018-09-15T12:48:41.224Z,42.97
2018-09-15T12:49:41.257Z,40.96
2018-09-15T12:50:41.199Z,40.14
2018-09-15T12:51:41.220Z,40.34
2018-09-15T12:52:41.179Z,39.53